LSXY weather

Leysin Heliport
Leysin, Canton of Vaud, Switzerland

Public forecast

Using degrees Celsius for public forecast. Weather courtesy of forecast.io.

METAR (pilot weather report)

Closest report is Sion Airport, 14.7 nm (27.2 km) ESE. Retrieved 2019/09/15 13:20 UTC (12 minutes ago):

LSGS 151320Z 22005KT 150V290 9999 FEW100 28/14 Q1023

TAF (pilot weather forecast)

Closest forecast is Payerne Air Base, 30.4 nm (56.3 km) N. Retrieved 2019/09/15 10:00 UTC (4 hours ago):

TAF LSMP 150925Z 1510/1616 VRB03KT CAVOK PROB30 1604/1607 0500 FG VV002